Página principal
METAR-TAF:

METAR-TAF

Aeroportos :

Aeroporto Internacional de Belgrado

Belgrado, Sérvia

latitude: 44-49N, longitude: 020-17E, altura: 96 m

Observação actual do tempo

O boletim foi feito há 15 minutos, às 19:00 UTC
Vento 5 kt de es-nordeste
Temperatura 16°C
Humidade 51%
Pressão 1019 hPa
Visibilidade 10 km ou mais
sem nuvens abaixo de 1500 metros e sem cumulonimbus

METAR: LYBE 171900Z 07005KT CAVOK 16/06 Q1019 NOSIG

Hora: 21:15 (19:15 UTC)

Previsão

O boletim foi feito há 2 horas e 15 minutos, às 17:00 UTC
Previsão válida de 17 às 18 UTC a 18 às 18 UTC
Vento 7 kt de este
Visibilidade 10 km ou mais
sem nuvens abaixo de 1500 metros e sem cumulonimbus

TAF: LYBE 171700Z 1718/1818 09007KT CAVOK TX23/1812Z TN08/1804Z

Observações e previsões do tempo de mais de 4000 aeroportos (mensagens METAR e TAF).

As estações disponíveis são os pontos amarelos e vermelhos sobre o mapa.

Mova o rato sobre o mapa para ver o nome da estação.

Depois clique no ponto para visualizar as observações e previsões meteorológicas.

Para alterar o mapa : clique nos botões verdes com uma cruz preta para aumentar o zoom; no botão verde com uma pitada de zoom; ou nas setas verdes para mapas adjacentes.


METAR-TAF: